createdAt,value
2022-12-14T00:00:41.183Z,8.40
2022-12-14T00:03:00.922Z,7.80
2022-12-14T00:05:21.181Z,7.82
2022-12-14T00:07:40.912Z,6.68
2022-12-14T00:10:00.409Z,6.07
2022-12-14T00:12:19.884Z,4.90
2022-12-14T00:14:39.406Z,5.30
2022-12-14T00:17:00.095Z,5.13
2022-12-14T00:19:19.850Z,3.95
2022-12-14T00:21:39.542Z,4.70
2022-12-14T00:23:59.821Z,4.35
2022-12-14T00:26:25.805Z,4.90
2022-12-14T00:28:47.141Z,4.03
2022-12-14T00:31:07.293Z,5.22
2022-12-14T00:33:27.338Z,5.07
2022-12-14T00:35:46.977Z,7.43
2022-12-14T00:38:07.024Z,7.82
2022-12-14T00:40:27.493Z,8.65
2022-12-14T00:42:47.297Z,8.88
2022-12-14T00:45:08.077Z,9.70
2022-12-14T00:47:28.150Z,9.70
2022-12-14T00:49:48.712Z,10.90
2022-12-14T00:52:08.559Z,9.68
2022-12-14T00:54:28.170Z,9.85
2022-12-14T00:56:48.056Z,8.98
2022-12-14T00:59:08.203Z,8.73
2022-12-14T01:01:29.826Z,7.22
2022-12-14T01:03:49.842Z,7.28
2022-12-14T01:06:16.554Z,6.10
2022-12-14T01:08:36.522Z,7.38
2022-12-14T01:10:56.177Z,6.40
2022-12-14T01:13:15.734Z,6.38
2022-12-14T01:15:35.486Z,6.40
2022-12-14T01:17:55.500Z,8.23
2022-12-14T01:20:15.610Z,7.88
2022-12-14T01:22:36.068Z,8.00
2022-12-14T01:24:56.065Z,8.65
2022-12-14T01:27:15.997Z,8.90
2022-12-14T01:29:36.363Z,8.75
2022-12-14T01:31:56.478Z,9.23
2022-12-14T01:34:16.726Z,8.57
2022-12-14T01:36:38.556Z,8.75
2022-12-14T01:39:04.079Z,9.52
2022-12-14T01:41:30.419Z,9.13
2022-12-14T01:43:54.769Z,10.52
2022-12-14T01:46:24.515Z,8.80
2022-12-14T01:48:46.225Z,9.43
2022-12-14T01:51:06.293Z,8.65
2022-12-14T01:53:26.151Z,10.98
2022-12-14T01:55:51.431Z,10.65
2022-12-14T01:58:37.872Z,9.00
2022-12-14T02:01:00.075Z,10.15
2022-12-14T02:03:37.323Z,11.88
2022-12-14T02:06:01.890Z,10.98
2022-12-14T02:08:23.485Z,9.75
2022-12-14T02:10:45.582Z,9.88
2022-12-14T02:13:13.741Z,9.38
2022-12-14T02:15:35.052Z,9.20
2022-12-14T02:17:55.207Z,9.50
2022-12-14T02:20:16.139Z,9.93
2022-12-14T02:23:04.051Z,8.80
2022-12-14T02:25:49.500Z,9.48
2022-12-14T02:28:39.442Z,10.07
2022-12-14T02:31:29.147Z,8.70
2022-12-14T02:33:58.133Z,8.88
2022-12-14T02:36:54.431Z,9.40
2022-12-14T02:39:28.057Z,9.55
2022-12-14T02:42:14.611Z,9.48
2022-12-14T02:44:42.857Z,10.85
2022-12-14T02:47:10.558Z,10.48
2022-12-14T02:50:00.355Z,12.50
2022-12-14T02:52:32.524Z,13.02
2022-12-14T02:55:07.972Z,13.05
2022-12-14T02:57:54.804Z,10.80
2022-12-14T03:00:15.281Z,11.63
2022-12-14T03:02:38.509Z,12.68
2022-12-14T03:04:58.311Z,13.43
2022-12-14T03:07:32.906Z,14.60
2022-12-14T03:09:53.454Z,15.88
2022-12-14T03:12:15.022Z,14.98
2022-12-14T03:14:42.034Z,13.20
2022-12-14T03:17:19.247Z,13.25
2022-12-14T03:19:44.195Z,12.75
2022-12-14T03:22:17.954Z,14.57
2022-12-14T03:24:42.917Z,15.98
2022-12-14T03:27:24.241Z,15.45
2022-12-14T03:30:03.149Z,12.82
2022-12-14T03:32:26.356Z,12.25
2022-12-14T03:35:00.979Z,13.40
2022-12-14T03:37:36.209Z,13.27
2022-12-14T03:39:55.718Z,13.32
2022-12-14T03:42:44.356Z,12.98
2022-12-14T03:45:20.965Z,12.80
2022-12-14T03:47:58.952Z,12.70
2022-12-14T03:50:29.767Z,11.43
2022-12-14T03:53:13.630Z,10.85
2022-12-14T03:55:49.210Z,10.05
2022-12-14T03:58:22.246Z,9.73
2022-12-14T04:00:51.032Z,10.55
2022-12-14T04:03:14.044Z,10.48
2022-12-14T04:05:49.121Z,8.40
2022-12-14T04:08:41.129Z,9.25
2022-12-14T04:11:38.478Z,10.15
2022-12-14T04:14:42.007Z,10.45
2022-12-14T04:17:54.451Z,10.32
2022-12-14T04:20:27.999Z,10.65
2022-12-14T04:23:03.153Z,10.35
2022-12-14T04:25:51.019Z,9.88
2022-12-14T04:28:52.785Z,11.27
2022-12-14T04:31:19.464Z,12.23
2022-12-14T04:33:47.551Z,12.93
2022-12-14T04:36:07.989Z,12.30
2022-12-14T04:38:35.647Z,12.60
2022-12-14T04:41:03.358Z,12.20
2022-12-14T04:43:40.417Z,12.20
2022-12-14T04:46:11.482Z,12.23
2022-12-14T04:48:44.502Z,11.98
2022-12-14T04:51:13.025Z,12.18
2022-12-14T04:53:35.010Z,12.07
2022-12-14T04:56:05.241Z,12.63
2022-12-14T04:58:28.184Z,12.30
2022-12-14T05:01:00.251Z,11.95
2022-12-14T05:03:27.550Z,13.35
2022-12-14T05:06:21.894Z,13.15
2022-12-14T05:08:56.950Z,12.88
2022-12-14T05:11:50.162Z,12.32
2022-12-14T05:13:57.261Z,12.50
2022-12-14T05:16:19.215Z,12.02
2022-12-14T05:18:38.990Z,12.50
2022-12-14T05:20:58.496Z,11.70
2022-12-14T05:23:18.551Z,11.48
2022-12-14T05:25:38.207Z,11.40
2022-12-14T05:27:57.883Z,12.20
2022-12-14T05:30:17.642Z,12.43
2022-12-14T05:32:37.395Z,12.02
2022-12-14T05:34:57.403Z,11.90
2022-12-14T05:37:18.543Z,10.90
2022-12-14T05:39:38.515Z,11.45
2022-12-14T05:41:58.298Z,10.85
2022-12-14T05:44:17.942Z,11.52
2022-12-14T05:46:37.809Z,11.65
2022-12-14T05:48:57.770Z,10.25
2022-12-14T05:51:17.555Z,9.98
2022-12-14T05:53:38.694Z,10.23
2022-12-14T05:55:58.474Z,10.05
2022-12-14T05:58:18.175Z,10.40
2022-12-14T06:00:38.357Z,9.77
2022-12-14T06:02:58.616Z,9.23
2022-12-14T06:05:18.586Z,9.48
2022-12-14T06:07:39.038Z,9.38
2022-12-14T06:09:58.881Z,10.25
2022-12-14T06:12:18.564Z,9.52
2022-12-14T06:14:38.217Z,9.23
2022-12-14T06:16:57.889Z,7.75
2022-12-14T06:19:17.825Z,9.38
2022-12-14T06:21:40.799Z,8.02
2022-12-14T06:24:01.248Z,8.07
2022-12-14T06:26:22.044Z,8.30
2022-12-14T06:28:41.842Z,8.52
2022-12-14T06:31:01.964Z,8.85
2022-12-14T06:33:22.029Z,7.65
2022-12-14T06:35:45.961Z,9.07
2022-12-14T06:38:05.674Z,13.38
2022-12-14T06:40:25.433Z,9.82
2022-12-14T06:42:46.759Z,9.90
2022-12-14T06:45:06.849Z,9.13
2022-12-14T06:47:27.612Z,9.57
2022-12-14T06:49:49.138Z,8.32
2022-12-14T06:52:09.995Z,15.37
2022-12-14T06:54:29.855Z,20.45
2022-12-14T06:56:49.611Z,11.80
2022-12-14T06:59:09.665Z,10.10
2022-12-14T07:01:30.076Z,10.77
2022-12-14T07:03:52.750Z,12.77
2022-12-14T07:06:13.001Z,18.63
2022-12-14T07:08:36.086Z,11.02
2022-12-14T07:11:01.962Z,11.40
2022-12-14T07:13:22.154Z,10.30
2022-12-14T07:15:41.893Z,10.20
2022-12-14T07:18:01.971Z,11.15
2022-12-14T07:20:21.665Z,11.13
2022-12-14T07:22:41.246Z,11.20
2022-12-14T07:25:01.102Z,12.10
2022-12-14T07:27:21.096Z,11.05
2022-12-14T07:29:40.844Z,13.23
2022-12-14T07:32:00.458Z,10.93
2022-12-14T07:34:20.251Z,11.95
2022-12-14T07:36:40.220Z,11.65
2022-12-14T07:39:00.084Z,11.57
2022-12-14T07:41:23.744Z,11.00
2022-12-14T07:43:45.256Z,11.20
2022-12-14T07:46:13.681Z,10.43
2022-12-14T07:48:34.420Z,11.55
2022-12-14T07:50:54.527Z,15.07
2022-12-14T07:53:14.629Z,13.73
2022-12-14T07:55:35.439Z,14.73
2022-12-14T07:57:55.180Z,21.27
2022-12-14T08:00:16.211Z,16.88
2022-12-14T08:02:36.215Z,15.80
2022-12-14T08:04:56.058Z,16.38
2022-12-14T08:07:15.599Z,18.08
2022-12-14T08:09:35.360Z,26.27
2022-12-14T08:11:55.561Z,22.88
2022-12-14T08:14:17.092Z,17.45
2022-12-14T08:16:37.140Z,13.38
2022-12-14T08:18:58.971Z,16.38
2022-12-14T08:21:20.993Z,15.13
2022-12-14T08:23:40.897Z,18.80
2022-12-14T08:26:02.030Z,15.48
2022-12-14T08:28:23.413Z,13.38
2022-12-14T08:30:43.225Z,14.15
2022-12-14T08:33:02.963Z,11.15
2022-12-14T08:35:25.011Z,11.77
2022-12-14T08:37:47.617Z,10.82
2022-12-14T08:40:09.419Z,10.10
2022-12-14T08:42:29.689Z,7.75
2022-12-14T08:44:49.645Z,7.70
2022-12-14T08:47:09.663Z,7.93
2022-12-14T08:49:32.471Z,6.32
2022-12-14T08:51:52.636Z,8.15
2022-12-14T08:54:12.290Z,7.80
2022-12-14T08:56:32.016Z,9.32
2022-12-14T08:58:52.772Z,7.88
2022-12-14T09:01:31.775Z,8.02
2022-12-14T09:03:52.837Z,9.65
2022-12-14T09:06:15.898Z,9.57
2022-12-14T09:08:35.908Z,9.50
2022-12-14T09:10:56.188Z,10.05
2022-12-14T09:13:16.433Z,10.25
2022-12-14T09:15:36.330Z,8.75
2022-12-14T09:17:56.064Z,9.63
2022-12-14T09:20:16.478Z,9.57
2022-12-14T09:22:36.481Z,8.00
2022-12-14T09:24:56.134Z,9.02
2022-12-14T09:27:16.092Z,9.52
2022-12-14T09:29:35.882Z,9.52
2022-12-14T09:31:56.020Z,10.45
2022-12-14T09:34:16.118Z,11.48
2022-12-14T09:36:37.337Z,9.35
2022-12-14T09:38:57.758Z,10.57
2022-12-14T09:41:33.826Z,9.45
2022-12-14T09:44:18.130Z,8.98
2022-12-14T09:46:57.332Z,10.20
2022-12-14T09:49:41.698Z,10.18
2022-12-14T09:52:04.642Z,9.02
2022-12-14T09:54:28.586Z,11.10
2022-12-14T09:56:48.968Z,12.63
2022-12-14T09:59:15.661Z,14.05
2022-12-14T10:01:43.908Z,8.75
2022-12-14T10:04:29.240Z,9.80
2022-12-14T10:07:04.138Z,9.95
2022-12-14T10:09:48.151Z,9.85
2022-12-14T10:12:37.849Z,9.23
2022-12-14T10:15:16.921Z,7.80
2022-12-14T10:18:02.954Z,8.35
2022-12-14T10:20:28.325Z,8.57
2022-12-14T10:22:52.011Z,9.00
2022-12-14T10:25:26.261Z,8.38
2022-12-14T10:28:12.279Z,9.27
2022-12-14T10:30:32.288Z,9.02
2022-12-14T10:33:01.605Z,8.38
2022-12-14T10:35:42.755Z,7.63
2022-12-14T10:38:23.289Z,10.02
2022-12-14T10:40:49.547Z,12.70
2022-12-14T10:43:27.816Z,10.48
2022-12-14T10:46:14.308Z,10.00
2022-12-14T10:48:51.976Z,9.25
2022-12-14T10:51:33.967Z,11.45
2022-12-14T10:54:11.946Z,17.52
2022-12-14T10:56:34.443Z,15.98
2022-12-14T10:59:31.163Z,11.77
2022-12-14T11:02:16.659Z,11.27
2022-12-14T11:04:43.992Z,10.38
2022-12-14T11:07:09.559Z,10.50
2022-12-14T11:09:30.220Z,10.65
2022-12-14T11:12:07.947Z,10.68
2022-12-14T11:14:28.531Z,9.90
2022-12-14T11:16:48.879Z,9.55
2022-12-14T11:19:19.619Z,10.68
2022-12-14T11:21:39.837Z,9.75
2022-12-14T11:24:00.731Z,10.45
2022-12-14T11:26:34.936Z,17.08
2022-12-14T11:28:57.865Z,13.80
2022-12-14T11:31:26.012Z,16.95
2022-12-14T11:33:54.347Z,10.02
2022-12-14T11:36:30.618Z,20.40
2022-12-14T11:39:01.158Z,21.35
2022-12-14T11:41:22.180Z,15.00
2022-12-14T11:43:42.954Z,15.90
2022-12-14T11:46:02.800Z,12.80
2022-12-14T11:48:28.732Z,9.88
2022-12-14T11:50:51.516Z,14.95
2022-12-14T11:53:13.888Z,18.57
2022-12-14T11:55:38.466Z,21.33
2022-12-14T11:57:59.783Z,23.30
2022-12-14T12:00:29.613Z,26.15
2022-12-14T12:03:12.851Z,29.17
2022-12-14T12:05:38.443Z,32.33
2022-12-14T12:08:01.531Z,39.03
2022-12-14T12:10:23.785Z,34.83
2022-12-14T12:12:54.088Z,23.20
2022-12-14T12:15:41.673Z,24.13
2022-12-14T12:18:14.690Z,23.10
2022-12-14T12:21:00.005Z,21.97
2022-12-14T12:23:28.182Z,24.58
2022-12-14T12:25:51.591Z,16.42
2022-12-14T12:28:22.310Z,19.13
2022-12-14T12:30:46.715Z,22.85
2022-12-14T12:33:46.072Z,16.65
2022-12-14T12:36:05.840Z,15.45
2022-12-14T12:38:56.157Z,20.35
2022-12-14T12:42:05.607Z,15.50
2022-12-14T12:44:49.569Z,23.02
2022-12-14T12:47:41.482Z,26.48
2022-12-14T12:50:27.382Z,18.73
2022-12-14T12:52:50.854Z,22.88
2022-12-14T12:55:17.051Z,17.95
2022-12-14T12:57:44.473Z,16.80
2022-12-14T13:00:06.384Z,16.77
2022-12-14T13:02:49.986Z,18.13
2022-12-14T13:08:06.060Z,17.85
2022-12-14T13:10:30.918Z,10.10
2022-12-14T13:12:53.475Z,21.73
2022-12-14T13:15:23.311Z,18.02
2022-12-14T13:18:01.096Z,11.63
2022-12-14T13:20:26.849Z,11.25
2022-12-14T13:22:48.243Z,10.98
2022-12-14T13:25:39.565Z,9.15
2022-12-14T13:28:31.108Z,8.55
2022-12-14T13:31:06.893Z,11.50
2022-12-14T13:33:42.564Z,14.30
2022-12-14T13:36:32.954Z,9.77
2022-12-14T13:39:14.857Z,6.72
2022-12-14T13:41:50.112Z,6.20
2022-12-14T13:44:16.145Z,5.47
2022-12-14T13:46:36.571Z,4.18
2022-12-14T13:49:02.176Z,5.30
2022-12-14T13:51:50.034Z,7.25
2022-12-14T13:54:35.722Z,25.50
2022-12-14T13:57:23.263Z,45.42
2022-12-14T13:59:49.891Z,46.60
2022-12-14T14:02:28.983Z,25.70
2022-12-14T14:04:48.724Z,4.68
2022-12-14T14:07:23.456Z,5.18
2022-12-14T14:09:48.051Z,3.97
2022-12-14T14:12:43.438Z,5.22
2022-12-14T14:17:35.069Z,4.53
2022-12-14T14:19:57.246Z,6.65
2022-12-14T14:22:24.601Z,5.05
2022-12-14T14:24:58.818Z,6.53
2022-12-14T14:27:21.068Z,9.43
2022-12-14T14:29:49.398Z,10.43
2022-12-14T14:32:30.344Z,11.07
2022-12-14T14:34:51.110Z,9.35
2022-12-14T14:37:33.028Z,11.90
2022-12-14T14:40:13.534Z,11.80
2022-12-14T14:43:03.294Z,14.00
2022-12-14T14:45:36.521Z,10.43
2022-12-14T14:47:59.730Z,7.40
2022-12-14T14:50:25.163Z,7.75
2022-12-14T14:52:57.002Z,8.73
2022-12-14T14:55:52.001Z,10.27
2022-12-14T14:58:08.804Z,11.57
2022-12-14T15:00:29.748Z,18.58
2022-12-14T15:02:52.580Z,22.88
2022-12-14T15:08:02.768Z,19.08
2022-12-14T15:10:35.024Z,18.60
2022-12-14T15:13:01.478Z,19.60
2022-12-14T15:15:42.572Z,18.15
2022-12-14T15:18:19.553Z,18.33
2022-12-14T15:20:40.126Z,18.52
2022-12-14T15:22:59.915Z,21.63
2022-12-14T15:25:28.993Z,24.80
2022-12-14T15:27:49.871Z,22.48
2022-12-14T15:30:09.997Z,19.02
2022-12-14T15:32:31.058Z,18.42
2022-12-14T15:35:04.471Z,15.88
2022-12-14T15:39:45.618Z,15.68
2022-12-14T15:42:12.174Z,12.90
2022-12-14T15:44:32.091Z,11.70
2022-12-14T15:46:55.580Z,11.90
2022-12-14T15:49:21.659Z,18.52
2022-12-14T15:51:43.779Z,19.83
2022-12-14T15:54:06.476Z,22.13
2022-12-14T15:56:43.406Z,23.75
2022-12-14T15:59:16.944Z,22.88
2022-12-14T16:01:53.241Z,16.40
2022-12-14T16:04:18.858Z,16.40
2022-12-14T16:06:56.920Z,19.55
2022-12-14T16:09:27.728Z,17.92
2022-12-14T16:11:52.844Z,22.45
2022-12-14T16:14:29.466Z,24.75
2022-12-14T16:16:50.084Z,34.33
2022-12-14T16:19:27.180Z,38.75
2022-12-14T16:22:04.403Z,39.63
2022-12-14T16:24:25.127Z,28.65
2022-12-14T16:26:55.280Z,16.67
2022-12-14T16:29:25.869Z,15.13
2022-12-14T16:31:45.777Z,14.30
2022-12-14T16:34:14.976Z,10.43
2022-12-14T16:36:36.567Z,12.70
2022-12-14T16:39:03.454Z,9.75
2022-12-14T16:41:41.469Z,8.75
2022-12-14T16:44:04.007Z,12.27
2022-12-14T16:46:24.093Z,11.60
2022-12-14T16:48:50.414Z,11.85
2022-12-14T16:51:44.478Z,21.65
2022-12-14T16:54:05.850Z,25.08
2022-12-14T16:56:45.163Z,25.10
2022-12-14T16:59:18.866Z,17.35
2022-12-14T17:01:46.443Z,18.00
2022-12-14T17:04:11.786Z,22.83
2022-12-14T17:06:53.042Z,21.73
2022-12-14T17:09:24.844Z,21.30
2022-12-14T17:11:46.338Z,26.73
2022-12-14T17:14:05.828Z,17.95
2022-12-14T17:16:25.785Z,25.73
2022-12-14T17:18:46.253Z,15.05
2022-12-14T17:21:07.203Z,8.45
2022-12-14T17:23:27.684Z,8.20
2022-12-14T17:25:48.080Z,7.03
2022-12-14T17:28:30.436Z,8.25
2022-12-14T17:30:53.530Z,22.80
2022-12-14T17:35:33.055Z,10.52
2022-12-14T17:37:52.733Z,10.80
2022-12-14T17:40:12.558Z,18.52
2022-12-14T17:42:32.644Z,13.65
2022-12-14T17:44:55.830Z,9.50
2022-12-14T17:47:15.663Z,7.95
2022-12-14T17:49:35.541Z,9.40
2022-12-14T17:51:55.240Z,15.48
2022-12-14T17:54:17.880Z,29.67
2022-12-14T17:58:59.534Z,28.58
2022-12-14T18:01:24.556Z,17.45
2022-12-14T18:03:44.985Z,14.05
2022-12-14T18:06:14.566Z,17.45
2022-12-14T18:08:34.357Z,11.35
2022-12-14T18:11:00.190Z,12.32
2022-12-14T18:13:20.279Z,10.30
2022-12-14T18:15:49.941Z,8.95
2022-12-14T18:18:10.248Z,10.07
2022-12-14T18:20:30.132Z,8.98
2022-12-14T18:22:51.059Z,7.53
2022-12-14T18:25:26.421Z,11.00
2022-12-14T18:27:46.274Z,14.70
2022-12-14T18:30:08.090Z,17.08
2022-12-14T18:32:27.661Z,16.83
2022-12-14T18:34:47.240Z,23.67
2022-12-14T18:37:06.735Z,36.33
2022-12-14T18:39:26.488Z,24.05
2022-12-14T18:41:46.451Z,27.13
2022-12-14T18:44:06.332Z,16.05
2022-12-14T18:46:26.991Z,18.65
2022-12-14T18:48:47.393Z,18.92
2022-12-14T18:51:12.923Z,21.73
2022-12-14T18:53:33.151Z,43.28
2022-12-14T18:55:53.821Z,33.70
2022-12-14T18:58:17.098Z,40.20
2022-12-14T19:00:37.470Z,36.90
2022-12-14T19:02:58.564Z,25.80
2022-12-14T19:05:26.117Z,40.85
2022-12-14T19:07:46.369Z,38.90
2022-12-14T19:10:06.744Z,32.08
2022-12-14T19:12:26.281Z,70.07
2022-12-14T19:14:48.042Z,48.88
2022-12-14T19:19:35.675Z,52.10
2022-12-14T19:21:59.247Z,56.53
2022-12-14T19:24:18.723Z,50.25
2022-12-14T19:26:38.617Z,46.33
2022-12-14T19:28:59.047Z,46.63
2022-12-14T19:31:18.966Z,44.20
2022-12-14T19:33:38.612Z,33.85
2022-12-14T19:35:59.569Z,61.97
2022-12-14T19:38:19.536Z,34.63
2022-12-14T19:40:40.427Z,27.83
2022-12-14T19:43:00.409Z,32.42
2022-12-14T19:45:20.340Z,28.35
2022-12-14T19:47:40.089Z,31.73
2022-12-14T19:50:00.293Z,39.55
2022-12-14T19:52:19.901Z,61.17
2022-12-14T19:54:39.483Z,56.40
2022-12-14T19:56:59.335Z,52.45
2022-12-14T19:59:18.918Z,37.90
2022-12-14T20:01:43.332Z,33.22
2022-12-14T20:04:06.704Z,30.98
2022-12-14T20:06:27.384Z,23.83
2022-12-14T20:08:49.523Z,31.60
2022-12-14T20:11:10.646Z,26.75
2022-12-14T20:13:30.741Z,31.35
2022-12-14T20:15:58.752Z,67.53
2022-12-14T20:18:19.740Z,29.50
2022-12-14T20:20:39.744Z,48.65
2022-12-14T20:22:59.229Z,74.32
2022-12-14T20:25:19.448Z,56.20
2022-12-14T20:27:41.020Z,52.42
2022-12-14T20:30:01.380Z,44.47
2022-12-14T20:32:20.957Z,37.03
2022-12-14T20:34:41.426Z,36.28
2022-12-14T20:37:01.003Z,47.90
2022-12-14T20:39:20.732Z,22.00
2022-12-14T20:41:41.623Z,27.15
2022-12-14T20:44:01.975Z,23.13
2022-12-14T20:46:33.611Z,21.63
2022-12-14T20:48:53.229Z,24.13
2022-12-14T20:51:13.590Z,24.20
2022-12-14T20:53:33.698Z,40.70
2022-12-14T20:55:53.906Z,56.42
2022-12-14T20:58:13.471Z,20.77
2022-12-14T21:00:35.363Z,17.75
2022-12-14T21:02:55.793Z,15.23
2022-12-14T21:05:15.599Z,24.42
2022-12-14T21:07:35.164Z,55.50
2022-12-14T21:09:54.934Z,42.08
2022-12-14T21:12:20.836Z,38.67
2022-12-14T21:14:41.816Z,28.67
2022-12-14T21:17:03.188Z,29.33
2022-12-14T21:19:23.182Z,35.30
2022-12-14T21:21:49.938Z,38.35
2022-12-14T21:24:25.727Z,36.47
2022-12-14T21:26:54.057Z,25.58
2022-12-14T21:29:14.093Z,22.02
2022-12-14T21:31:34.923Z,17.55
2022-12-14T21:33:54.790Z,15.02
2022-12-14T21:36:14.507Z,17.40
2022-12-14T21:38:35.515Z,17.80
2022-12-14T21:41:14.201Z,22.20
2022-12-14T21:43:34.309Z,17.70
2022-12-14T21:45:54.049Z,18.95
2022-12-14T21:48:13.653Z,21.73
2022-12-14T21:50:33.519Z,22.90
2022-12-14T21:52:53.786Z,23.77
2022-12-14T21:55:14.092Z,20.48
2022-12-14T21:58:12.080Z,22.95
2022-12-14T22:00:32.053Z,23.48
2022-12-14T22:02:51.697Z,20.52
2022-12-14T22:05:14.309Z,23.17
2022-12-14T22:07:34.381Z,22.63
2022-12-14T22:09:54.503Z,20.33
2022-12-14T22:12:15.172Z,20.02
2022-12-14T22:14:35.606Z,18.75
2022-12-14T22:16:55.484Z,19.95
2022-12-14T22:19:21.415Z,17.77
2022-12-14T22:21:42.244Z,17.25
2022-12-14T22:24:01.939Z,16.92
2022-12-14T22:26:22.968Z,14.40
2022-12-14T22:28:42.807Z,14.68
2022-12-14T22:31:03.539Z,12.48
2022-12-14T22:33:23.247Z,13.48
2022-12-14T22:35:42.885Z,14.73
2022-12-14T22:38:02.556Z,13.02
2022-12-14T22:40:22.184Z,13.93
2022-12-14T22:42:41.948Z,11.85
2022-12-14T22:45:01.942Z,12.07
2022-12-14T22:47:22.066Z,13.70
2022-12-14T22:49:42.623Z,12.88
2022-12-14T22:52:02.715Z,11.95
2022-12-14T22:54:25.248Z,13.25
2022-12-14T22:56:58.002Z,11.95
2022-12-14T22:59:35.675Z,12.15
2022-12-14T23:01:55.942Z,12.23
2022-12-14T23:04:16.490Z,11.00
2022-12-14T23:06:36.754Z,10.40
2022-12-14T23:09:14.989Z,10.93
2022-12-14T23:11:52.988Z,11.23
2022-12-14T23:14:31.981Z,11.90
2022-12-14T23:17:10.031Z,11.35
2022-12-14T23:19:48.462Z,12.48
2022-12-14T23:22:26.310Z,11.70
2022-12-14T23:25:04.762Z,10.73
2022-12-14T23:27:42.847Z,11.38
2022-12-14T23:30:22.672Z,14.63
2022-12-14T23:33:01.001Z,13.27
2022-12-14T23:35:39.445Z,12.30
2022-12-14T23:38:23.111Z,12.32
2022-12-14T23:41:01.973Z,10.90
2022-12-14T23:43:39.945Z,11.07
2022-12-14T23:46:20.075Z,11.70
2022-12-14T23:48:58.371Z,10.18
2022-12-14T23:51:36.813Z,11.93
2022-12-14T23:54:14.715Z,11.60
2022-12-14T23:56:52.940Z,10.50
2022-12-14T23:59:32.643Z,10.50
